sensor_id;sensor_type;location;lat;lon;timestamp;P1;durP1;ratioP1;P2;durP2;ratioP2
15327;SDS011;7764;51.430;6.840;2023-05-10T00:01:33;18.67;;;12.80;;
15327;SDS011;7764;51.430;6.840;2023-05-10T00:04:00;18.40;;;12.87;;
15327;SDS011;7764;51.430;6.840;2023-05-10T00:06:27;17.73;;;12.57;;
15327;SDS011;7764;51.430;6.840;2023-05-10T00:08:53;19.03;;;13.23;;
15327;SDS011;7764;51.430;6.840;2023-05-10T00:11:20;18.17;;;13.10;;
15327;SDS011;7764;51.430;6.840;2023-05-10T00:13:47;18.97;;;12.53;;
15327;SDS011;7764;51.430;6.840;2023-05-10T00:16:15;18.87;;;13.00;;
15327;SDS011;7764;51.430;6.840;2023-05-10T00:18:42;18.23;;;13.00;;
15327;SDS011;7764;51.430;6.840;2023-05-10T00:21:09;18.80;;;13.63;;
15327;SDS011;7764;51.430;6.840;2023-05-10T00:23:36;18.53;;;12.93;;
15327;SDS011;7764;51.430;6.840;2023-05-10T00:26:03;18.37;;;13.03;;
15327;SDS011;7764;51.430;6.840;2023-05-10T00:28:29;18.37;;;13.17;;
15327;SDS011;7764;51.430;6.840;2023-05-10T00:30:56;15.70;;;11.27;;
15327;SDS011;7764;51.430;6.840;2023-05-10T00:33:25;15.80;;;10.30;;
15327;SDS011;7764;51.430;6.840;2023-05-10T00:35:52;15.83;;;10.07;;
15327;SDS011;7764;51.430;6.840;2023-05-10T00:38:18;14.73;;;10.13;;
15327;SDS011;7764;51.430;6.840;2023-05-10T00:40:45;14.83;;;9.47;;
15327;SDS011;7764;51.430;6.840;2023-05-10T00:43:12;14.63;;;9.63;;
15327;SDS011;7764;51.430;6.840;2023-05-10T00:45:39;16.10;;;11.53;;
15327;SDS011;7764;51.430;6.840;2023-05-10T00:48:07;18.63;;;11.30;;
15327;SDS011;7764;51.430;6.840;2023-05-10T00:50:35;15.60;;;11.23;;
15327;SDS011;7764;51.430;6.840;2023-05-10T00:53:03;17.47;;;12.00;;
15327;SDS011;7764;51.430;6.840;2023-05-10T00:55:30;19.43;;;13.43;;
15327;SDS011;7764;51.430;6.840;2023-05-10T00:57:57;19.70;;;13.33;;
15327;SDS011;7764;51.430;6.840;2023-05-10T01:00:24;20.67;;;14.27;;
15327;SDS011;7764;51.430;6.840;2023-05-10T01:02:51;22.70;;;14.83;;
15327;SDS011;7764;51.430;6.840;2023-05-10T01:05:19;20.80;;;14.60;;
15327;SDS011;7764;51.430;6.840;2023-05-10T01:07:47;21.87;;;14.73;;
15327;SDS011;7764;51.430;6.840;2023-05-10T01:10:14;22.40;;;14.30;;
15327;SDS011;7764;51.430;6.840;2023-05-10T01:12:44;21.93;;;14.63;;
15327;SDS011;7764;51.430;6.840;2023-05-10T01:15:12;21.53;;;14.87;;
15327;SDS011;7764;51.430;6.840;2023-05-10T01:17:41;22.23;;;14.97;;
15327;SDS011;7764;51.430;6.840;2023-05-10T01:20:09;21.53;;;14.60;;
15327;SDS011;7764;51.430;6.840;2023-05-10T01:22:42;23.27;;;14.77;;
15327;SDS011;7764;51.430;6.840;2023-05-10T01:25:37;21.43;;;15.70;;
15327;SDS011;7764;51.430;6.840;2023-05-10T01:31:30;22.43;;;14.80;;
15327;SDS011;7764;51.430;6.840;2023-05-10T01:34:09;22.40;;;14.50;;
15327;SDS011;7764;51.430;6.840;2023-05-10T01:36:43;23.17;;;15.13;;
15327;SDS011;7764;51.430;6.840;2023-05-10T01:39:23;21.80;;;15.43;;
15327;SDS011;7764;51.430;6.840;2023-05-10T01:41:54;19.60;;;14.53;;
15327;SDS011;7764;51.430;6.840;2023-05-10T01:44:24;20.20;;;13.87;;
15327;SDS011;7764;51.430;6.840;2023-05-10T01:46:56;20.97;;;14.20;;
15327;SDS011;7764;51.430;6.840;2023-05-10T01:49:31;20.60;;;13.70;;
15327;SDS011;7764;51.430;6.840;2023-05-10T01:52:04;20.93;;;14.23;;
15327;SDS011;7764;51.430;6.840;2023-05-10T01:54:34;19.87;;;13.40;;
15327;SDS011;7764;51.430;6.840;2023-05-10T01:57:05;18.37;;;13.17;;
15327;SDS011;7764;51.430;6.840;2023-05-10T01:59:35;20.57;;;14.13;;
15327;SDS011;7764;51.430;6.840;2023-05-10T02:02:05;19.70;;;13.10;;
15327;SDS011;7764;51.430;6.840;2023-05-10T02:04:34;21.37;;;14.00;;
15327;SDS011;7764;51.430;6.840;2023-05-10T02:07:03;18.77;;;13.03;;
15327;SDS011;7764;51.430;6.840;2023-05-10T02:09:32;18.33;;;12.80;;
15327;SDS011;7764;51.430;6.840;2023-05-10T02:11:59;80.57;;;60.07;;
15327;SDS011;7764;51.430;6.840;2023-05-10T02:14:30;21.33;;;14.97;;
15327;SDS011;7764;51.430;6.840;2023-05-10T02:17:01;22.97;;;14.60;;
15327;SDS011;7764;51.430;6.840;2023-05-10T02:19:31;23.80;;;16.83;;
15327;SDS011;7764;51.430;6.840;2023-05-10T02:22:01;24.17;;;15.87;;
15327;SDS011;7764;51.430;6.840;2023-05-10T02:24:29;23.07;;;14.87;;
15327;SDS011;7764;51.430;6.840;2023-05-10T02:26:58;22.80;;;15.83;;
15327;SDS011;7764;51.430;6.840;2023-05-10T02:29:26;24.23;;;16.13;;
15327;SDS011;7764;51.430;6.840;2023-05-10T02:31:54;24.83;;;15.53;;
15327;SDS011;7764;51.430;6.840;2023-05-10T02:34:23;23.13;;;15.73;;
15327;SDS011;7764;51.430;6.840;2023-05-10T02:36:51;28.23;;;17.00;;
15327;SDS011;7764;51.430;6.840;2023-05-10T02:39:20;26.53;;;16.90;;
15327;SDS011;7764;51.430;6.840;2023-05-10T02:41:48;27.23;;;17.27;;
15327;SDS011;7764;51.430;6.840;2023-05-10T02:44:17;26.43;;;16.63;;
15327;SDS011;7764;51.430;6.840;2023-05-10T02:46:45;26.57;;;17.27;;
15327;SDS011;7764;51.430;6.840;2023-05-10T02:49:13;26.63;;;17.63;;
15327;SDS011;7764;51.430;6.840;2023-05-10T02:51:40;28.40;;;17.80;;
15327;SDS011;7764;51.430;6.840;2023-05-10T02:54:11;28.57;;;17.80;;
15327;SDS011;7764;51.430;6.840;2023-05-10T02:56:49;29.67;;;19.10;;
15327;SDS011;7764;51.430;6.840;2023-05-10T02:59:19;28.73;;;18.53;;
15327;SDS011;7764;51.430;6.840;2023-05-10T03:01:46;28.00;;;18.03;;
15327;SDS011;7764;51.430;6.840;2023-05-10T03:04:13;29.50;;;19.07;;
15327;SDS011;7764;51.430;6.840;2023-05-10T03:06:40;30.50;;;19.47;;
15327;SDS011;7764;51.430;6.840;2023-05-10T03:09:07;26.57;;;17.57;;
15327;SDS011;7764;51.430;6.840;2023-05-10T03:11:39;32.77;;;22.37;;
15327;SDS011;7764;51.430;6.840;2023-05-10T03:14:16;27.57;;;18.50;;
15327;SDS011;7764;51.430;6.840;2023-05-10T03:16:52;40.07;;;22.17;;
15327;SDS011;7764;51.430;6.840;2023-05-10T03:19:24;30.57;;;20.60;;
15327;SDS011;7764;51.430;6.840;2023-05-10T03:21:57;29.50;;;18.67;;
15327;SDS011;7764;51.430;6.840;2023-05-10T03:24:29;28.43;;;19.33;;
15327;SDS011;7764;51.430;6.840;2023-05-10T03:26:58;36.43;;;21.87;;
15327;SDS011;7764;51.430;6.840;2023-05-10T03:29:27;33.07;;;21.03;;
15327;SDS011;7764;51.430;6.840;2023-05-10T03:31:55;33.10;;;21.93;;
15327;SDS011;7764;51.430;6.840;2023-05-10T03:34:24;32.17;;;19.70;;
15327;SDS011;7764;51.430;6.840;2023-05-10T03:36:51;30.27;;;18.73;;
15327;SDS011;7764;51.430;6.840;2023-05-10T03:39:18;27.93;;;18.87;;
15327;SDS011;7764;51.430;6.840;2023-05-10T03:41:46;31.13;;;19.70;;
15327;SDS011;7764;51.430;6.840;2023-05-10T03:44:14;31.60;;;21.20;;
15327;SDS011;7764;51.430;6.840;2023-05-10T03:46:41;29.90;;;19.10;;
15327;SDS011;7764;51.430;6.840;2023-05-10T03:49:08;30.27;;;19.80;;
15327;SDS011;7764;51.430;6.840;2023-05-10T03:51:34;34.80;;;21.77;;
15327;SDS011;7764;51.430;6.840;2023-05-10T03:54:01;30.80;;;19.57;;
15327;SDS011;7764;51.430;6.840;2023-05-10T03:56:28;36.93;;;21.47;;
15327;SDS011;7764;51.430;6.840;2023-05-10T03:58:55;32.63;;;20.20;;
15327;SDS011;7764;51.430;6.840;2023-05-10T04:01:23;33.40;;;20.97;;
15327;SDS011;7764;51.430;6.840;2023-05-10T04:03:50;32.30;;;20.40;;
15327;SDS011;7764;51.430;6.840;2023-05-10T04:06:17;32.70;;;20.57;;
15327;SDS011;7764;51.430;6.840;2023-05-10T04:08:44;32.80;;;20.90;;
15327;SDS011;7764;51.430;6.840;2023-05-10T04:11:11;31.90;;;20.87;;
15327;SDS011;7764;51.430;6.840;2023-05-10T04:13:39;35.80;;;23.17;;
15327;SDS011;7764;51.430;6.840;2023-05-10T04:16:06;35.37;;;21.53;;
15327;SDS011;7764;51.430;6.840;2023-05-10T04:18:34;34.37;;;20.93;;
15327;SDS011;7764;51.430;6.840;2023-05-10T04:21:01;38.17;;;22.80;;
15327;SDS011;7764;51.430;6.840;2023-05-10T04:23:28;33.03;;;21.70;;
15327;SDS011;7764;51.430;6.840;2023-05-10T04:25:58;38.70;;;21.60;;
15327;SDS011;7764;51.430;6.840;2023-05-10T04:28:26;38.40;;;22.83;;
15327;SDS011;7764;51.430;6.840;2023-05-10T04:30:53;36.63;;;22.97;;
15327;SDS011;7764;51.430;6.840;2023-05-10T04:33:27;37.17;;;23.17;;
15327;SDS011;7764;51.430;6.840;2023-05-10T04:35:55;38.20;;;23.57;;
15327;SDS011;7764;51.430;6.840;2023-05-10T04:38:22;39.77;;;25.00;;
15327;SDS011;7764;51.430;6.840;2023-05-10T04:40:49;38.63;;;24.30;;
15327;SDS011;7764;51.430;6.840;2023-05-10T04:43:16;37.60;;;23.53;;
15327;SDS011;7764;51.430;6.840;2023-05-10T04:45:43;40.57;;;24.83;;
15327;SDS011;7764;51.430;6.840;2023-05-10T04:48:10;38.33;;;24.60;;
15327;SDS011;7764;51.430;6.840;2023-05-10T04:50:36;40.37;;;25.23;;
15327;SDS011;7764;51.430;6.840;2023-05-10T04:53:05;43.30;;;29.47;;
15327;SDS011;7764;51.430;6.840;2023-05-10T04:55:31;44.17;;;26.10;;
15327;SDS011;7764;51.430;6.840;2023-05-10T04:57:58;43.33;;;27.87;;
15327;SDS011;7764;51.430;6.840;2023-05-10T05:00:25;42.00;;;25.90;;
15327;SDS011;7764;51.430;6.840;2023-05-10T05:02:52;42.73;;;28.03;;
15327;SDS011;7764;51.430;6.840;2023-05-10T05:05:19;42.10;;;27.10;;
15327;SDS011;7764;51.430;6.840;2023-05-10T05:07:46;40.17;;;26.40;;
15327;SDS011;7764;51.430;6.840;2023-05-10T05:10:14;44.33;;;26.13;;
15327;SDS011;7764;51.430;6.840;2023-05-10T05:12:41;41.73;;;26.63;;
15327;SDS011;7764;51.430;6.840;2023-05-10T05:15:08;44.77;;;27.57;;
15327;SDS011;7764;51.430;6.840;2023-05-10T05:17:35;45.33;;;28.63;;
15327;SDS011;7764;51.430;6.840;2023-05-10T05:20:02;43.70;;;27.23;;
15327;SDS011;7764;51.430;6.840;2023-05-10T05:22:30;45.77;;;27.50;;
15327;SDS011;7764;51.430;6.840;2023-05-10T05:24:57;50.00;;;32.07;;
15327;SDS011;7764;51.430;6.840;2023-05-10T05:27:25;52.67;;;35.13;;
15327;SDS011;7764;51.430;6.840;2023-05-10T05:29:52;44.43;;;28.30;;
15327;SDS011;7764;51.430;6.840;2023-05-10T05:32:19;41.97;;;26.70;;
15327;SDS011;7764;51.430;6.840;2023-05-10T05:34:46;41.10;;;25.87;;
15327;SDS011;7764;51.430;6.840;2023-05-10T05:37:14;40.60;;;25.87;;
15327;SDS011;7764;51.430;6.840;2023-05-10T05:39:41;40.20;;;25.97;;
15327;SDS011;7764;51.430;6.840;2023-05-10T05:42:08;42.93;;;28.13;;
15327;SDS011;7764;51.430;6.840;2023-05-10T05:44:37;38.20;;;25.87;;
15327;SDS011;7764;51.430;6.840;2023-05-10T05:47:04;40.83;;;26.03;;
15327;SDS011;7764;51.430;6.840;2023-05-10T05:49:31;42.87;;;25.83;;
15327;SDS011;7764;51.430;6.840;2023-05-10T05:51:58;41.17;;;25.77;;
15327;SDS011;7764;51.430;6.840;2023-05-10T05:54:26;41.67;;;26.30;;
15327;SDS011;7764;51.430;6.840;2023-05-10T05:56:53;40.90;;;26.63;;
15327;SDS011;7764;51.430;6.840;2023-05-10T05:59:20;41.00;;;26.13;;
15327;SDS011;7764;51.430;6.840;2023-05-10T06:01:48;40.53;;;26.77;;
15327;SDS011;7764;51.430;6.840;2023-05-10T06:04:15;41.27;;;26.70;;
15327;SDS011;7764;51.430;6.840;2023-05-10T06:06:43;43.37;;;26.40;;
15327;SDS011;7764;51.430;6.840;2023-05-10T06:09:09;44.10;;;28.00;;
15327;SDS011;7764;51.430;6.840;2023-05-10T06:11:36;49.63;;;29.80;;
15327;SDS011;7764;51.430;6.840;2023-05-10T06:14:04;48.63;;;29.07;;
15327;SDS011;7764;51.430;6.840;2023-05-10T06:16:32;55.23;;;31.00;;
15327;SDS011;7764;51.430;6.840;2023-05-10T06:19:00;51.70;;;31.40;;
15327;SDS011;7764;51.430;6.840;2023-05-10T06:21:27;52.80;;;30.17;;
15327;SDS011;7764;51.430;6.840;2023-05-10T06:23:54;50.90;;;30.37;;
15327;SDS011;7764;51.430;6.840;2023-05-10T06:26:20;55.70;;;30.70;;
15327;SDS011;7764;51.430;6.840;2023-05-10T06:28:47;54.57;;;31.67;;
15327;SDS011;7764;51.430;6.840;2023-05-10T06:31:14;55.97;;;31.17;;
15327;SDS011;7764;51.430;6.840;2023-05-10T06:33:41;59.00;;;30.97;;
15327;SDS011;7764;51.430;6.840;2023-05-10T06:36:09;54.53;;;31.53;;
15327;SDS011;7764;51.430;6.840;2023-05-10T06:38:36;55.93;;;31.73;;
15327;SDS011;7764;51.430;6.840;2023-05-10T06:41:03;57.07;;;32.93;;
15327;SDS011;7764;51.430;6.840;2023-05-10T06:43:30;59.83;;;33.67;;
15327;SDS011;7764;51.430;6.840;2023-05-10T06:45:57;57.50;;;33.33;;
15327;SDS011;7764;51.430;6.840;2023-05-10T06:48:24;54.03;;;31.60;;
15327;SDS011;7764;51.430;6.840;2023-05-10T06:50:51;53.67;;;30.67;;
15327;SDS011;7764;51.430;6.840;2023-05-10T06:53:19;58.57;;;31.40;;
15327;SDS011;7764;51.430;6.840;2023-05-10T06:55:46;52.20;;;29.63;;
15327;SDS011;7764;51.430;6.840;2023-05-10T06:58:12;54.23;;;29.67;;
15327;SDS011;7764;51.430;6.840;2023-05-10T07:00:39;49.93;;;28.47;;
15327;SDS011;7764;51.430;6.840;2023-05-10T07:03:08;51.67;;;29.50;;
15327;SDS011;7764;51.430;6.840;2023-05-10T07:05:35;56.58;;;31.10;;
15327;SDS011;7764;51.430;6.840;2023-05-10T07:08:02;51.67;;;30.00;;
15327;SDS011;7764;51.430;6.840;2023-05-10T07:10:30;55.03;;;30.20;;
15327;SDS011;7764;51.430;6.840;2023-05-10T07:12:57;52.50;;;29.47;;
15327;SDS011;7764;51.430;6.840;2023-05-10T07:15:25;54.57;;;30.23;;
15327;SDS011;7764;51.430;6.840;2023-05-10T07:17:52;52.80;;;29.83;;
15327;SDS011;7764;51.430;6.840;2023-05-10T07:20:19;47.83;;;29.30;;
15327;SDS011;7764;51.430;6.840;2023-05-10T07:22:45;49.38;;;28.88;;
15327;SDS011;7764;51.430;6.840;2023-05-10T07:25:12;50.80;;;30.10;;
15327;SDS011;7764;51.430;6.840;2023-05-10T07:27:40;49.70;;;29.90;;
15327;SDS011;7764;51.430;6.840;2023-05-10T07:30:08;48.47;;;28.57;;
15327;SDS011;7764;51.430;6.840;2023-05-10T07:32:35;47.40;;;27.57;;
15327;SDS011;7764;51.430;6.840;2023-05-10T07:35:02;48.43;;;27.30;;
15327;SDS011;7764;51.430;6.840;2023-05-10T07:37:29;51.97;;;30.17;;
15327;SDS011;7764;51.430;6.840;2023-05-10T07:39:56;50.90;;;25.30;;
15327;SDS011;7764;51.430;6.840;2023-05-10T07:42:22;44.95;;;25.02;;
15327;SDS011;7764;51.430;6.840;2023-05-10T07:44:51;40.43;;;24.23;;
15327;SDS011;7764;51.430;6.840;2023-05-10T07:47:17;38.87;;;22.83;;
15327;SDS011;7764;51.430;6.840;2023-05-10T07:49:44;34.10;;;21.08;;
15327;SDS011;7764;51.430;6.840;2023-05-10T07:52:11;38.20;;;22.23;;
15327;SDS011;7764;51.430;6.840;2023-05-10T07:54:38;37.55;;;21.75;;
15327;SDS011;7764;51.430;6.840;2023-05-10T07:57:05;36.03;;;22.50;;
15327;SDS011;7764;51.430;6.840;2023-05-10T07:59:32;37.45;;;22.58;;
15327;SDS011;7764;51.430;6.840;2023-05-10T08:02:00;37.53;;;22.27;;
15327;SDS011;7764;51.430;6.840;2023-05-10T08:04:27;38.08;;;22.65;;
15327;SDS011;7764;51.430;6.840;2023-05-10T08:06:54;37.55;;;23.45;;
15327;SDS011;7764;51.430;6.840;2023-05-10T08:09:20;35.73;;;22.77;;
15327;SDS011;7764;51.430;6.840;2023-05-10T08:11:48;36.33;;;23.98;;
15327;SDS011;7764;51.430;6.840;2023-05-10T08:14:15;36.00;;;24.00;;
15327;SDS011;7764;51.430;6.840;2023-05-10T08:16:43;56.20;;;32.55;;
15327;SDS011;7764;51.430;6.840;2023-05-10T08:19:11;42.97;;;28.52;;
15327;SDS011;7764;51.430;6.840;2023-05-10T08:21:38;36.15;;;21.80;;
15327;SDS011;7764;51.430;6.840;2023-05-10T08:24:05;38.92;;;22.65;;
15327;SDS011;7764;51.430;6.840;2023-05-10T08:26:32;36.95;;;22.63;;
15327;SDS011;7764;51.430;6.840;2023-05-10T08:28:59;41.03;;;24.90;;
15327;SDS011;7764;51.430;6.840;2023-05-10T08:31:26;38.70;;;23.90;;
15327;SDS011;7764;51.430;6.840;2023-05-10T08:33:53;38.70;;;23.33;;
15327;SDS011;7764;51.430;6.840;2023-05-10T08:36:21;41.33;;;22.92;;
15327;SDS011;7764;51.430;6.840;2023-05-10T08:38:49;42.78;;;23.42;;
15327;SDS011;7764;51.430;6.840;2023-05-10T08:41:17;39.80;;;22.80;;
15327;SDS011;7764;51.430;6.840;2023-05-10T08:43:46;38.95;;;23.50;;
15327;SDS011;7764;51.430;6.840;2023-05-10T08:46:13;40.60;;;22.83;;
15327;SDS011;7764;51.430;6.840;2023-05-10T08:48:43;39.75;;;24.52;;
15327;SDS011;7764;51.430;6.840;2023-05-10T08:51:12;45.17;;;23.90;;
15327;SDS011;7764;51.430;6.840;2023-05-10T08:53:42;42.95;;;23.65;;
15327;SDS011;7764;51.430;6.840;2023-05-10T08:56:10;37.92;;;22.88;;
15327;SDS011;7764;51.430;6.840;2023-05-10T08:58:37;40.30;;;23.50;;
15327;SDS011;7764;51.430;6.840;2023-05-10T09:01:04;38.15;;;23.25;;
15327;SDS011;7764;51.430;6.840;2023-05-10T09:03:31;39.97;;;22.90;;
15327;SDS011;7764;51.430;6.840;2023-05-10T09:05:58;41.40;;;25.27;;
15327;SDS011;7764;51.430;6.840;2023-05-10T09:08:25;36.05;;;23.13;;
15327;SDS011;7764;51.430;6.840;2023-05-10T09:10:54;39.55;;;23.38;;
15327;SDS011;7764;51.430;6.840;2023-05-10T09:13:22;40.13;;;24.45;;
15327;SDS011;7764;51.430;6.840;2023-05-10T09:15:49;42.85;;;24.90;;
15327;SDS011;7764;51.430;6.840;2023-05-10T09:18:17;35.13;;;22.40;;
15327;SDS011;7764;51.430;6.840;2023-05-10T09:20:44;35.30;;;22.95;;
15327;SDS011;7764;51.430;6.840;2023-05-10T09:23:11;35.38;;;21.52;;
15327;SDS011;7764;51.430;6.840;2023-05-10T09:25:38;43.55;;;24.52;;
15327;SDS011;7764;51.430;6.840;2023-05-10T09:28:08;38.47;;;22.02;;
15327;SDS011;7764;51.430;6.840;2023-05-10T09:30:35;36.85;;;21.20;;
15327;SDS011;7764;51.430;6.840;2023-05-10T09:33:02;34.03;;;20.80;;
15327;SDS011;7764;51.430;6.840;2023-05-10T09:35:30;38.85;;;23.63;;
15327;SDS011;7764;51.430;6.840;2023-05-10T09:37:58;30.13;;;19.77;;
15327;SDS011;7764;51.430;6.840;2023-05-10T09:40:27;32.53;;;19.83;;
15327;SDS011;7764;51.430;6.840;2023-05-10T09:42:55;28.92;;;19.13;;
15327;SDS011;7764;51.430;6.840;2023-05-10T09:45:25;30.05;;;18.25;;
15327;SDS011;7764;51.430;6.840;2023-05-10T09:47:53;26.13;;;16.95;;
15327;SDS011;7764;51.430;6.840;2023-05-10T09:50:20;24.67;;;17.23;;
15327;SDS011;7764;51.430;6.840;2023-05-10T09:52:48;26.42;;;16.88;;
15327;SDS011;7764;51.430;6.840;2023-05-10T09:55:17;25.52;;;17.67;;
15327;SDS011;7764;51.430;6.840;2023-05-10T09:57:45;29.58;;;17.77;;
15327;SDS011;7764;51.430;6.840;2023-05-10T10:00:16;26.17;;;16.83;;
15327;SDS011;7764;51.430;6.840;2023-05-10T10:02:46;25.08;;;16.60;;
15327;SDS011;7764;51.430;6.840;2023-05-10T10:05:14;25.00;;;16.48;;
15327;SDS011;7764;51.430;6.840;2023-05-10T10:07:41;24.35;;;16.55;;
15327;SDS011;7764;51.430;6.840;2023-05-10T10:10:09;24.33;;;17.58;;
15327;SDS011;7764;51.430;6.840;2023-05-10T10:12:37;24.80;;;17.35;;
15327;SDS011;7764;51.430;6.840;2023-05-10T10:15:05;25.65;;;18.27;;
15327;SDS011;7764;51.430;6.840;2023-05-10T10:17:34;30.17;;;17.92;;
15327;SDS011;7764;51.430;6.840;2023-05-10T10:20:05;25.45;;;17.50;;
15327;SDS011;7764;51.430;6.840;2023-05-10T10:22:33;25.50;;;17.23;;
15327;SDS011;7764;51.430;6.840;2023-05-10T10:25:00;24.75;;;16.55;;
15327;SDS011;7764;51.430;6.840;2023-05-10T10:27:28;24.65;;;15.80;;
15327;SDS011;7764;51.430;6.840;2023-05-10T10:30:08;22.50;;;14.75;;
15327;SDS011;7764;51.430;6.840;2023-05-10T10:32:47;24.60;;;15.90;;
15327;SDS011;7764;51.430;6.840;2023-05-10T10:35:36;24.05;;;15.05;;
15327;SDS011;7764;51.430;6.840;2023-05-10T10:38:03;22.48;;;15.65;;
15327;SDS011;7764;51.430;6.840;2023-05-10T10:40:30;24.07;;;15.00;;
15327;SDS011;7764;51.430;6.840;2023-05-10T10:42:58;22.40;;;14.85;;
15327;SDS011;7764;51.430;6.840;2023-05-10T10:45:48;21.23;;;15.57;;
15327;SDS011;7764;51.430;6.840;2023-05-10T10:48:36;26.77;;;16.67;;
15327;SDS011;7764;51.430;6.840;2023-05-10T10:51:04;24.00;;;16.90;;
15327;SDS011;7764;51.430;6.840;2023-05-10T10:53:31;25.95;;;16.40;;
15327;SDS011;7764;51.430;6.840;2023-05-10T10:56:02;26.13;;;16.98;;
15327;SDS011;7764;51.430;6.840;2023-05-10T10:58:34;26.40;;;16.92;;
15327;SDS011;7764;51.430;6.840;2023-05-10T11:01:11;24.48;;;17.08;;
15327;SDS011;7764;51.430;6.840;2023-05-10T11:03:39;25.30;;;17.58;;
15327;SDS011;7764;51.430;6.840;2023-05-10T11:06:08;25.67;;;18.33;;
15327;SDS011;7764;51.430;6.840;2023-05-10T11:08:39;25.70;;;18.00;;
15327;SDS011;7764;51.430;6.840;2023-05-10T11:11:13;25.00;;;17.92;;
15327;SDS011;7764;51.430;6.840;2023-05-10T11:13:41;28.00;;;18.60;;
15327;SDS011;7764;51.430;6.840;2023-05-10T11:16:09;29.15;;;20.08;;
15327;SDS011;7764;51.430;6.840;2023-05-10T11:18:38;30.70;;;18.70;;
15327;SDS011;7764;51.430;6.840;2023-05-10T11:21:05;28.30;;;19.65;;
15327;SDS011;7764;51.430;6.840;2023-05-10T11:23:47;25.55;;;18.27;;
15327;SDS011;7764;51.430;6.840;2023-05-10T11:26:15;29.10;;;18.35;;
15327;SDS011;7764;51.430;6.840;2023-05-10T11:28:42;24.45;;;17.20;;
15327;SDS011;7764;51.430;6.840;2023-05-10T11:31:09;25.98;;;17.52;;
15327;SDS011;7764;51.430;6.840;2023-05-10T11:33:42;26.80;;;16.98;;
15327;SDS011;7764;51.430;6.840;2023-05-10T11:36:10;24.48;;;16.95;;
15327;SDS011;7764;51.430;6.840;2023-05-10T11:38:37;20.30;;;14.57;;
15327;SDS011;7764;51.430;6.840;2023-05-10T11:41:07;37.78;;;27.33;;
15327;SDS011;7764;51.430;6.840;2023-05-10T11:43:35;21.13;;;16.35;;
15327;SDS011;7764;51.430;6.840;2023-05-10T11:46:03;16.83;;;13.70;;
15327;SDS011;7764;51.430;6.840;2023-05-10T11:48:30;21.38;;;13.50;;
15327;SDS011;7764;51.430;6.840;2023-05-10T11:50:57;18.80;;;13.05;;
15327;SDS011;7764;51.430;6.840;2023-05-10T11:53:25;18.60;;;12.50;;
15327;SDS011;7764;51.430;6.840;2023-05-10T11:55:54;20.25;;;13.52;;
15327;SDS011;7764;51.430;6.840;2023-05-10T11:58:23;19.77;;;12.23;;
15327;SDS011;7764;51.430;6.840;2023-05-10T12:00:50;11.35;;;9.23;;
15327;SDS011;7764;51.430;6.840;2023-05-10T12:03:17;12.98;;;8.60;;
15327;SDS011;7764;51.430;6.840;2023-05-10T12:05:43;13.13;;;9.10;;
15327;SDS011;7764;51.430;6.840;2023-05-10T12:08:11;12.23;;;7.85;;
15327;SDS011;7764;51.430;6.840;2023-05-10T12:10:38;13.68;;;7.93;;
15327;SDS011;7764;51.430;6.840;2023-05-10T12:13:07;10.85;;;8.07;;
15327;SDS011;7764;51.430;6.840;2023-05-10T12:15:37;13.35;;;8.25;;
15327;SDS011;7764;51.430;6.840;2023-05-10T12:18:04;11.88;;;8.02;;
15327;SDS011;7764;51.430;6.840;2023-05-10T12:20:31;12.32;;;7.82;;
15327;SDS011;7764;51.430;6.840;2023-05-10T12:22:58;12.75;;;8.13;;
15327;SDS011;7764;51.430;6.840;2023-05-10T12:25:29;10.63;;;7.60;;
15327;SDS011;7764;51.430;6.840;2023-05-10T12:27:58;10.18;;;7.15;;
15327;SDS011;7764;51.430;6.840;2023-05-10T12:30:28;11.57;;;7.43;;
15327;SDS011;7764;51.430;6.840;2023-05-10T12:32:59;12.48;;;7.75;;
15327;SDS011;7764;51.430;6.840;2023-05-10T12:35:29;10.05;;;7.50;;
15327;SDS011;7764;51.430;6.840;2023-05-10T12:37:56;11.93;;;7.72;;
15327;SDS011;7764;51.430;6.840;2023-05-10T12:40:24;10.27;;;7.35;;
15327;SDS011;7764;51.430;6.840;2023-05-10T12:42:52;11.35;;;7.25;;
15327;SDS011;7764;51.430;6.840;2023-05-10T12:45:19;11.93;;;7.05;;
15327;SDS011;7764;51.430;6.840;2023-05-10T12:47:47;11.68;;;7.45;;
15327;SDS011;7764;51.430;6.840;2023-05-10T12:50:13;10.73;;;7.53;;
15327;SDS011;7764;51.430;6.840;2023-05-10T12:52:40;10.85;;;7.18;;
15327;SDS011;7764;51.430;6.840;2023-05-10T12:55:07;11.45;;;7.95;;
15327;SDS011;7764;51.430;6.840;2023-05-10T12:57:34;12.15;;;8.27;;
15327;SDS011;7764;51.430;6.840;2023-05-10T13:00:01;10.35;;;7.22;;
15327;SDS011;7764;51.430;6.840;2023-05-10T13:02:29;8.98;;;6.25;;
15327;SDS011;7764;51.430;6.840;2023-05-10T13:04:58;9.70;;;6.50;;
15327;SDS011;7764;51.430;6.840;2023-05-10T13:07:25;7.90;;;6.53;;
15327;SDS011;7764;51.430;6.840;2023-05-10T13:09:51;10.73;;;6.80;;
15327;SDS011;7764;51.430;6.840;2023-05-10T13:12:18;9.38;;;6.07;;
15327;SDS011;7764;51.430;6.840;2023-05-10T13:14:45;9.00;;;6.57;;
15327;SDS011;7764;51.430;6.840;2023-05-10T13:17:12;8.95;;;6.43;;
15327;SDS011;7764;51.430;6.840;2023-05-10T13:19:39;12.68;;;6.80;;
15327;SDS011;7764;51.430;6.840;2023-05-10T13:22:07;9.20;;;6.30;;
15327;SDS011;7764;51.430;6.840;2023-05-10T13:24:34;8.93;;;6.20;;
15327;SDS011;7764;51.430;6.840;2023-05-10T13:27:01;8.90;;;6.43;;
15327;SDS011;7764;51.430;6.840;2023-05-10T13:29:28;8.45;;;5.93;;
15327;SDS011;7764;51.430;6.840;2023-05-10T13:31:55;8.60;;;6.35;;
15327;SDS011;7764;51.430;6.840;2023-05-10T13:34:22;9.82;;;6.25;;
15327;SDS011;7764;51.430;6.840;2023-05-10T13:36:49;10.65;;;7.30;;
15327;SDS011;7764;51.430;6.840;2023-05-10T13:39:17;11.40;;;8.02;;
15327;SDS011;7764;51.430;6.840;2023-05-10T13:41:44;12.35;;;8.07;;
15327;SDS011;7764;51.430;6.840;2023-05-10T13:44:11;9.95;;;7.60;;
15327;SDS011;7764;51.430;6.840;2023-05-10T13:46:39;11.50;;;8.20;;
15327;SDS011;7764;51.430;6.840;2023-05-10T13:49:06;11.63;;;8.23;;
15327;SDS011;7764;51.430;6.840;2023-05-10T13:51:33;11.40;;;8.40;;
15327;SDS011;7764;51.430;6.840;2023-05-10T13:54:00;12.35;;;8.40;;
15327;SDS011;7764;51.430;6.840;2023-05-10T13:56:28;17.98;;;14.85;;
15327;SDS011;7764;51.430;6.840;2023-05-10T13:58:55;13.48;;;9.90;;
15327;SDS011;7764;51.430;6.840;2023-05-10T14:01:23;13.77;;;12.30;;
15327;SDS011;7764;51.430;6.840;2023-05-10T14:03:50;12.55;;;9.57;;
15327;SDS011;7764;51.430;6.840;2023-05-10T14:06:17;10.68;;;7.85;;
15327;SDS011;7764;51.430;6.840;2023-05-10T14:08:43;10.27;;;7.65;;
15327;SDS011;7764;51.430;6.840;2023-05-10T14:11:10;10.57;;;8.27;;
15327;SDS011;7764;51.430;6.840;2023-05-10T14:13:39;10.02;;;8.60;;
15327;SDS011;7764;51.430;6.840;2023-05-10T14:16:06;12.60;;;9.30;;
15327;SDS011;7764;51.430;6.840;2023-05-10T14:18:33;10.35;;;7.90;;
15327;SDS011;7764;51.430;6.840;2023-05-10T14:21:01;13.73;;;9.63;;
15327;SDS011;7764;51.430;6.840;2023-05-10T14:23:29;13.75;;;8.27;;
15327;SDS011;7764;51.430;6.840;2023-05-10T14:25:56;15.95;;;9.23;;
15327;SDS011;7764;51.430;6.840;2023-05-10T14:28:23;11.32;;;8.52;;
15327;SDS011;7764;51.430;6.840;2023-05-10T14:30:51;11.45;;;8.60;;
15327;SDS011;7764;51.430;6.840;2023-05-10T14:33:18;11.70;;;8.80;;
15327;SDS011;7764;51.430;6.840;2023-05-10T14:35:45;11.60;;;9.38;;
15327;SDS011;7764;51.430;6.840;2023-05-10T14:38:12;14.05;;;10.48;;
15327;SDS011;7764;51.430;6.840;2023-05-10T14:40:39;12.20;;;10.63;;
15327;SDS011;7764;51.430;6.840;2023-05-10T14:43:06;15.20;;;9.70;;
15327;SDS011;7764;51.430;6.840;2023-05-10T14:45:33;11.00;;;7.97;;
15327;SDS011;7764;51.430;6.840;2023-05-10T14:48:01;11.15;;;7.43;;